createdAt,value
2017-08-04T03:22:53.992Z,85.96
2017-08-04T03:25:21.743Z,86.31
2017-08-04T03:27:49.695Z,86.47
2017-08-04T03:30:17.428Z,86.81
2017-08-04T03:32:45.264Z,86.56
2017-08-04T03:35:12.940Z,87.29
2017-08-04T03:37:40.569Z,87.41
2017-08-04T03:40:09.377Z,87.24
2017-08-04T03:42:37.017Z,86.85
2017-08-04T03:45:05.008Z,87.02
2017-08-04T03:47:33.056Z,87.24
2017-08-04T03:50:00.685Z,87.65
2017-08-04T03:52:28.342Z,87.76
2017-08-04T03:54:55.994Z,87.87
2017-08-04T03:57:23.654Z,87.49
2017-08-04T03:59:51.260Z,87.53
2017-08-04T04:02:18.922Z,87.69
2017-08-04T04:04:46.524Z,87.97
2017-08-04T04:07:14.485Z,87.97
2017-08-04T04:09:42.238Z,88.04
2017-08-04T04:12:09.908Z,88.12
2017-08-04T04:14:37.574Z,88.19
2017-08-04T04:17:05.200Z,88.15
2017-08-04T04:19:32.823Z,88.03
2017-08-04T04:22:00.455Z,88.20
2017-08-04T04:24:28.429Z,88.39
2017-08-04T04:26:56.099Z,88.89
2017-08-04T04:29:23.860Z,88.51
2017-08-04T04:31:51.503Z,88.66
2017-08-04T04:34:19.250Z,88.71
2017-08-04T04:36:47.208Z,88.79
2017-08-04T04:39:15.070Z,89.38
2017-08-04T04:41:43.387Z,89.32
2017-08-04T04:44:11.020Z,89.33
2017-08-04T04:46:38.644Z,89.38
2017-08-04T04:49:06.292Z,89.04
2017-08-04T04:51:33.946Z,88.82
2017-08-04T04:54:01.620Z,88.92
2017-08-04T04:56:29.256Z,88.71
2017-08-04T04:58:56.921Z,88.38
2017-08-04T05:01:24.886Z,88.38
2017-08-04T05:03:52.907Z,88.29
2017-08-04T05:06:21.854Z,88.33
2017-08-04T05:08:49.474Z,88.49
2017-08-04T05:11:18.201Z,88.44
2017-08-04T05:13:45.864Z,88.68
2017-08-04T05:16:13.496Z,88.84
2017-08-04T05:18:41.461Z,88.43
2017-08-04T05:21:09.200Z,88.33
2017-08-04T05:23:36.828Z,88.17
2017-08-04T05:26:04.632Z,87.72
2017-08-04T05:28:32.258Z,87.46
2017-08-04T05:31:00.198Z,87.69
2017-08-04T05:33:27.873Z,87.71
2017-08-04T05:35:55.486Z,87.89
2017-08-04T05:38:23.238Z,87.51
2017-08-04T05:40:50.866Z,87.39
2017-08-04T05:43:18.537Z,87.13
2017-08-04T05:45:46.178Z,86.95
2017-08-04T05:48:13.863Z,86.78
2017-08-04T05:50:41.534Z,86.45
2017-08-04T05:53:09.191Z,86.54
2017-08-04T05:55:36.838Z,86.09
2017-08-04T05:58:04.924Z,86.00
2017-08-04T06:00:32.540Z,85.73
2017-08-04T06:03:00.146Z,85.76
2017-08-04T06:05:27.874Z,85.44
2017-08-04T06:07:55.611Z,86.19
2017-08-04T06:10:23.264Z,85.43
2017-08-04T06:12:50.885Z,85.34
2017-08-04T06:15:18.653Z,85.40
2017-08-04T06:17:46.293Z,84.53
2017-08-04T06:20:14.290Z,84.46
2017-08-04T06:22:41.920Z,84.36
2017-08-04T06:25:09.574Z,84.24
2017-08-04T06:27:37.400Z,84.34
2017-08-04T06:30:05.055Z,83.78
2017-08-04T06:32:32.706Z,83.31
2017-08-04T06:35:00.428Z,82.22
2017-08-04T06:37:28.430Z,82.42
2017-08-04T06:39:56.063Z,82.92
2017-08-04T06:42:24.235Z,82.97
2017-08-04T06:44:51.957Z,83.03
2017-08-04T06:47:19.601Z,82.92
2017-08-04T06:49:59.090Z,83.43
2017-08-04T06:52:38.508Z,83.77
2017-08-04T06:55:17.981Z,83.72
2017-08-04T06:57:45.592Z,84.18
2017-08-04T07:00:13.232Z,83.88
2017-08-04T07:02:40.857Z,83.49
2017-08-04T07:05:08.794Z,82.89
2017-08-04T07:07:36.420Z,82.90
2017-08-04T07:10:04.042Z,82.73
2017-08-04T07:12:31.708Z,83.16
2017-08-04T07:14:59.328Z,81.72
2017-08-04T07:17:26.956Z,82.41
2017-08-04T07:19:54.621Z,81.81
2017-08-04T07:22:22.596Z,81.90
2017-08-04T07:24:50.229Z,82.29
2017-08-04T07:27:17.956Z,81.63
2017-08-04T07:29:45.592Z,82.04
2017-08-04T07:32:13.207Z,81.32
2017-08-04T07:34:40.889Z,80.95
2017-08-04T07:37:08.496Z,80.75
2017-08-04T07:39:36.175Z,81.04
2017-08-04T07:42:03.792Z,80.97
2017-08-04T07:44:31.727Z,81.06
2017-08-04T07:46:59.364Z,80.42
2017-08-04T07:49:26.998Z,80.92
2017-08-04T07:51:54.666Z,81.10
2017-08-04T07:54:22.344Z,80.38
2017-08-04T07:56:50.031Z,80.92
2017-08-04T07:59:17.713Z,80.46
2017-08-04T08:01:45.365Z,80.78
2017-08-04T08:04:12.983Z,80.68
2017-08-04T08:06:40.652Z,81.54
2017-08-04T08:09:08.694Z,80.98
2017-08-04T08:11:36.718Z,81.38
2017-08-04T08:14:04.460Z,80.97
2017-08-04T08:16:32.090Z,81.17
2017-08-04T08:18:59.743Z,80.54
2017-08-04T08:21:27.450Z,81.07
2017-08-04T08:23:55.125Z,80.89
2017-08-04T08:26:22.733Z,80.54
2017-08-04T08:28:50.703Z,80.13
2017-08-04T08:31:18.326Z,80.15
2017-08-04T08:33:45.954Z,79.35
2017-08-04T08:36:13.622Z,78.73
2017-08-04T08:38:41.299Z,77.89
2017-08-04T08:41:09.080Z,79.61
2017-08-04T08:43:36.703Z,79.34
2017-08-04T08:46:04.363Z,78.87
2017-08-04T08:48:31.980Z,78.40
2017-08-04T08:51:00.077Z,77.81
2017-08-04T08:53:27.726Z,78.07
2017-08-04T08:55:55.347Z,77.72
2017-08-04T08:58:22.993Z,77.39
2017-08-04T09:00:50.612Z,78.51
2017-08-04T09:03:18.466Z,78.59
2017-08-04T09:05:46.100Z,77.96
2017-08-04T09:08:13.749Z,77.75
2017-08-04T09:10:41.373Z,77.96
2017-08-04T09:13:09.367Z,77.58
2017-08-04T09:15:36.980Z,77.55
2017-08-04T09:18:04.612Z,76.53
2017-08-04T09:20:32.283Z,76.14
2017-08-04T09:22:59.930Z,75.54
2017-08-04T09:25:27.904Z,75.14
2017-08-04T09:27:55.564Z,75.04
2017-08-04T09:30:23.212Z,75.48
2017-08-04T09:32:50.841Z,74.87
2017-08-04T09:35:18.586Z,74.23
2017-08-04T09:37:46.252Z,74.36
2017-08-04T09:40:13.941Z,74.05
2017-08-04T09:42:41.580Z,72.39
2017-08-04T09:45:09.301Z,72.84
2017-08-04T09:47:37.371Z,74.23
2017-08-04T09:50:04.992Z,74.30
2017-08-04T09:52:32.625Z,74.38
2017-08-04T09:55:00.258Z,73.22
2017-08-04T09:57:28.059Z,73.27
2017-08-04T09:59:55.709Z,73.46
2017-08-04T10:02:23.445Z,71.63
2017-08-04T10:04:51.397Z,70.90
2017-08-04T10:07:19.049Z,70.69
2017-08-04T10:09:46.663Z,71.68
2017-08-04T10:12:14.314Z,72.23
2017-08-04T10:14:41.960Z,69.87
2017-08-04T10:17:09.633Z,67.75
2017-08-04T10:19:37.301Z,68.40
2017-08-04T10:22:05.071Z,67.27
2017-08-04T10:24:32.817Z,67.21
2017-08-04T10:27:00.819Z,66.33
2017-08-04T10:29:28.553Z,65.24
2017-08-04T10:31:56.209Z,66.36
2017-08-04T10:34:23.843Z,66.94
2017-08-04T10:36:51.479Z,66.70
2017-08-04T10:39:19.261Z,65.94
2017-08-04T10:41:46.872Z,65.94
2017-08-04T10:44:14.819Z,65.60
2017-08-04T10:46:42.431Z,66.27
2017-08-04T10:49:10.064Z,65.68
2017-08-04T10:51:37.852Z,62.12
2017-08-04T10:54:05.458Z,64.86
2017-08-04T10:56:33.087Z,62.89
2017-08-04T10:59:00.704Z,64.23
2017-08-04T11:01:28.649Z,61.73
2017-08-04T11:03:56.696Z,62.02
2017-08-04T11:06:24.404Z,62.25
2017-08-04T11:08:52.047Z,60.10
2017-08-04T11:11:19.777Z,61.01
2017-08-04T11:13:47.422Z,60.57
2017-08-04T11:16:15.028Z,60.14
2017-08-04T11:18:42.956Z,60.12
2017-08-04T11:21:10.645Z,58.57
2017-08-04T11:23:38.468Z,63.30
2017-08-04T11:26:06.081Z,61.31
2017-08-04T11:28:33.717Z,61.91
2017-08-04T11:31:01.355Z,63.09
2017-08-04T11:33:28.980Z,61.75
2017-08-04T11:35:56.981Z,60.78
2017-08-04T11:38:25.279Z,61.09
2017-08-04T11:40:52.910Z,62.88
2017-08-04T11:43:20.555Z,62.86
2017-08-04T11:45:48.168Z,62.28
2017-08-04T11:48:15.798Z,61.51
2017-08-04T11:50:43.412Z,60.72
2017-08-04T11:53:12.427Z,60.41
2017-08-04T11:55:40.085Z,61.41
2017-08-04T11:58:07.706Z,61.98
2017-08-04T12:00:35.446Z,62.53
2017-08-04T12:03:03.111Z,62.79
2017-08-04T12:05:30.751Z,61.96
2017-08-04T12:07:58.371Z,61.97
2017-08-04T12:10:26.359Z,63.70
2017-08-04T12:12:54.097Z,63.66
2017-08-04T12:15:21.926Z,62.79
2017-08-04T12:17:49.581Z,64.37
2017-08-04T12:20:17.181Z,59.97
2017-08-04T12:22:44.912Z,62.33
2017-08-04T12:25:13.756Z,60.86
2017-08-04T12:27:41.743Z,59.26
2017-08-04T12:30:09.353Z,60.51
2017-08-04T12:32:36.988Z,61.64
2017-08-04T12:35:04.638Z,62.23
2017-08-04T12:37:32.258Z,63.44
2017-08-04T12:40:00.017Z,61.97
2017-08-04T12:42:27.749Z,62.11
2017-08-04T12:44:55.413Z,63.34
2017-08-04T12:47:23.032Z,63.08
2017-08-04T12:49:51.077Z,62.66
2017-08-04T12:52:18.755Z,60.08
2017-08-04T12:54:46.381Z,60.59
2017-08-04T12:57:14.042Z,61.81
2017-08-04T12:59:41.647Z,59.94
2017-08-04T13:02:09.254Z,57.75
2017-08-04T13:04:36.883Z,58.02
2017-08-04T13:07:04.538Z,59.15
2017-08-04T13:09:32.191Z,60.68
2017-08-04T13:12:00.184Z,61.17
2017-08-04T13:14:27.780Z,60.60
2017-08-04T13:16:55.859Z,57.38
2017-08-04T13:19:23.523Z,57.84
2017-08-04T13:21:51.137Z,57.59
2017-08-04T13:24:18.806Z,57.97
2017-08-04T13:26:46.426Z,56.21
2017-08-04T13:29:14.420Z,56.85
2017-08-04T13:31:42.044Z,55.58
2017-08-04T13:34:09.651Z,56.87
2017-08-04T13:36:37.291Z,55.59
2017-08-04T13:39:04.910Z,52.57
2017-08-04T13:41:32.556Z,52.82
2017-08-04T13:44:00.169Z,51.61
2017-08-04T13:46:27.918Z,52.66
2017-08-04T13:48:55.541Z,52.90
2017-08-04T13:51:23.536Z,54.68
2017-08-04T13:53:51.284Z,56.74
2017-08-04T13:56:18.903Z,53.58
2017-08-04T13:58:46.533Z,55.64
2017-08-04T14:01:14.202Z,55.07
2017-08-04T14:03:41.833Z,53.77
2017-08-04T14:06:09.519Z,53.68
2017-08-04T14:08:37.496Z,51.09
2017-08-04T14:11:05.121Z,51.11
2017-08-04T14:13:32.738Z,51.85
2017-08-04T14:16:00.382Z,51.50
2017-08-04T14:18:28.008Z,49.67
2017-08-04T14:20:55.666Z,52.35
2017-08-04T14:23:23.280Z,52.16
2017-08-04T14:25:51.273Z,52.62
2017-08-04T14:28:18.868Z,53.96
2017-08-04T14:30:46.520Z,56.02
2017-08-04T14:33:14.179Z,54.79
2017-08-04T14:35:41.942Z,54.29
2017-08-04T14:38:09.576Z,53.54
2017-08-04T14:40:37.177Z,55.65
2017-08-04T14:43:04.940Z,54.63
2017-08-04T14:45:32.658Z,53.82
2017-08-04T14:48:00.651Z,55.82
2017-08-04T14:50:28.282Z,55.14
2017-08-04T14:52:55.991Z,52.71
2017-08-04T14:55:23.635Z,52.26
2017-08-04T14:57:51.242Z,53.78
2017-08-04T15:00:18.878Z,55.44
2017-08-04T15:02:46.805Z,53.25
2017-08-04T15:05:14.806Z,54.04
2017-08-04T15:07:42.522Z,53.48
2017-08-04T15:10:10.242Z,54.17
2017-08-04T15:12:37.941Z,54.17
2017-08-04T15:15:05.560Z,52.65
2017-08-04T15:17:33.201Z,55.40
2017-08-04T15:20:00.820Z,54.35
2017-08-04T15:22:28.841Z,54.56
2017-08-04T15:24:56.457Z,54.36
2017-08-04T15:27:24.328Z,54.14
2017-08-04T15:29:51.961Z,54.17
2017-08-04T15:32:19.575Z,54.66
2017-08-04T15:34:47.211Z,56.45
2017-08-04T15:37:15.032Z,54.40
2017-08-04T15:39:42.983Z,55.43
2017-08-04T15:42:10.615Z,54.32
2017-08-04T15:44:38.250Z,55.16
2017-08-04T15:47:05.891Z,55.33
2017-08-04T15:49:33.519Z,54.48
2017-08-04T15:52:01.185Z,55.72
2017-08-04T15:54:28.798Z,57.25
2017-08-04T15:56:56.814Z,57.08
2017-08-04T15:59:24.421Z,55.80
2017-08-04T16:01:52.055Z,56.85
2017-08-04T16:04:19.717Z,54.94
2017-08-04T16:06:47.577Z,54.78
2017-08-04T16:09:15.278Z,57.90
2017-08-04T16:11:42.884Z,58.42
2017-08-04T16:14:10.522Z,56.30
2017-08-04T16:16:38.138Z,56.68
2017-08-04T16:19:06.208Z,56.59
2017-08-04T16:21:35.325Z,56.20
2017-08-04T16:24:02.965Z,55.25
2017-08-04T16:26:30.643Z,53.79
2017-08-04T16:28:58.261Z,54.18
2017-08-04T16:31:26.167Z,55.04
2017-08-04T16:33:53.773Z,54.70
2017-08-04T16:36:21.387Z,54.51
2017-08-04T16:38:49.031Z,54.73
2017-08-04T16:41:16.654Z,54.02
2017-08-04T16:43:44.294Z,53.85
2017-08-04T16:46:11.903Z,54.37
2017-08-04T16:48:39.594Z,54.63
2017-08-04T16:51:07.215Z,56.53
2017-08-04T16:53:35.215Z,55.50
2017-08-04T16:56:03.556Z,56.54
2017-08-04T16:58:31.183Z,56.28
2017-08-04T17:00:58.828Z,56.60
2017-08-04T17:03:26.435Z,56.57
2017-08-04T17:05:55.407Z,57.22
2017-08-04T17:08:23.033Z,58.35
2017-08-04T17:10:51.426Z,56.69
2017-08-04T17:13:19.190Z,56.40
2017-08-04T17:15:46.826Z,55.92
2017-08-04T17:18:14.454Z,56.03
2017-08-04T17:20:42.077Z,56.86
2017-08-04T17:23:09.766Z,56.42
2017-08-04T17:25:37.412Z,57.08
2017-08-04T17:28:05.327Z,57.57
2017-08-04T17:30:32.939Z,57.71
2017-08-04T17:33:00.585Z,57.03
2017-08-04T17:35:28.235Z,57.08
2017-08-04T17:37:55.947Z,56.81
2017-08-04T17:40:23.628Z,58.24
2017-08-04T17:42:51.364Z,58.06
2017-08-04T17:45:19.283Z,58.69
2017-08-04T17:47:46.912Z,59.36
2017-08-04T17:50:14.541Z,58.33
2017-08-04T17:52:42.243Z,58.69
2017-08-04T17:55:09.855Z,58.06
2017-08-04T17:57:37.488Z,58.67
2017-08-04T18:00:05.112Z,58.85
2017-08-04T18:02:45.112Z,59.72
2017-08-04T18:05:12.713Z,59.74
2017-08-04T18:07:40.363Z,59.85
2017-08-04T18:10:08.126Z,59.77
2017-08-04T18:12:35.749Z,59.53
2017-08-04T18:15:03.396Z,60.24
2017-08-04T18:17:31.026Z,60.59
2017-08-04T18:19:59.155Z,60.84
2017-08-04T18:22:26.780Z,60.11
2017-08-04T18:24:56.196Z,61.04
2017-08-04T18:27:23.839Z,60.77
2017-08-04T18:29:51.460Z,59.65
2017-08-04T18:32:19.115Z,60.23
2017-08-04T18:34:46.772Z,62.09
2017-08-04T18:37:14.506Z,61.61
2017-08-04T18:39:42.119Z,61.28
2017-08-04T18:42:09.777Z,60.91
2017-08-04T18:44:37.415Z,60.74
2017-08-04T18:47:05.389Z,60.36
2017-08-04T18:49:33.013Z,61.57
2017-08-04T18:52:00.655Z,59.31
2017-08-04T18:54:28.402Z,60.42
2017-08-04T18:56:56.052Z,60.60
2017-08-04T18:59:24.077Z,60.86
2017-08-04T19:01:51.672Z,58.55
2017-08-04T19:04:19.299Z,59.47
2017-08-04T19:06:46.929Z,58.51
2017-08-04T19:09:14.567Z,59.18
2017-08-04T19:11:42.301Z,61.17
2017-08-04T19:14:09.999Z,61.68
2017-08-04T19:16:37.749Z,60.03
2017-08-04T19:19:05.376Z,59.71
2017-08-04T19:21:33.381Z,60.57
2017-08-04T19:24:01.271Z,61.39
2017-08-04T19:26:28.877Z,59.92
2017-08-04T19:28:56.566Z,59.11
2017-08-04T19:31:24.294Z,59.74
2017-08-04T19:33:51.972Z,59.61
2017-08-04T19:36:19.600Z,58.87
2017-08-04T19:38:47.455Z,59.49
2017-08-04T19:41:15.680Z,60.34
2017-08-04T19:43:43.403Z,61.18
2017-08-04T19:46:11.203Z,61.23
2017-08-04T19:48:38.832Z,61.88
2017-08-04T19:51:06.498Z,61.19
2017-08-04T19:53:34.118Z,61.77
2017-08-04T19:56:02.162Z,61.75
2017-08-04T19:58:29.876Z,62.82
2017-08-04T20:00:57.636Z,62.74
2017-08-04T20:03:25.284Z,61.37
2017-08-04T20:05:52.903Z,61.69
2017-08-04T20:08:20.577Z,60.85
2017-08-04T20:10:48.194Z,60.76
2017-08-04T20:13:16.184Z,60.51
2017-08-04T20:15:44.968Z,60.89
2017-08-04T20:18:12.577Z,60.59
2017-08-04T20:20:40.220Z,61.07
2017-08-04T20:23:07.859Z,60.95
2017-08-04T20:25:35.516Z,60.04
2017-08-04T20:28:04.495Z,60.17
2017-08-04T20:30:32.427Z,59.72
2017-08-04T20:33:00.068Z,59.92
2017-08-04T20:35:27.690Z,59.87
2017-08-04T20:37:55.777Z,59.89
2017-08-04T20:40:23.407Z,59.75
2017-08-04T20:42:51.116Z,59.99
2017-08-04T20:45:18.733Z,59.71
2017-08-04T20:47:46.517Z,60.37
2017-08-04T20:50:14.160Z,60.05
2017-08-04T20:52:41.816Z,60.26
2017-08-04T20:55:09.478Z,60.57
2017-08-04T20:57:37.417Z,60.86
2017-08-04T21:00:05.217Z,60.69
2017-08-04T21:02:32.969Z,60.78
2017-08-04T21:05:00.595Z,61.18
2017-08-04T21:07:28.207Z,61.24
2017-08-04T21:09:55.856Z,61.25
2017-08-04T21:12:23.490Z,61.07
2017-08-04T21:14:51.596Z,61.37
2017-08-04T21:17:19.306Z,60.98
2017-08-04T21:19:46.923Z,60.63
2017-08-04T21:22:14.941Z,61.58
2017-08-04T21:24:42.556Z,61.88
2017-08-04T21:27:10.258Z,61.89
2017-08-04T21:29:37.986Z,62.20
2017-08-04T21:32:05.634Z,62.06
2017-08-04T21:34:33.245Z,62.21
2017-08-04T21:37:00.894Z,62.95
2017-08-04T21:39:28.532Z,64.02
2017-08-04T21:41:56.169Z,63.80
2017-08-04T21:44:23.769Z,65.25
2017-08-04T21:46:51.468Z,64.73
2017-08-04T21:49:19.088Z,64.82
2017-08-04T21:51:46.725Z,65.17
2017-08-04T21:54:14.381Z,65.37
2017-08-04T21:56:42.024Z,65.54
2017-08-04T21:59:09.620Z,65.88
2017-08-04T22:01:37.240Z,66.53
2017-08-04T22:04:04.881Z,67.23
2017-08-04T22:06:32.491Z,68.72
2017-08-04T22:09:00.120Z,68.99
2017-08-04T22:11:27.755Z,69.58
2017-08-04T22:13:55.374Z,69.47
2017-08-04T22:16:23.016Z,69.02
2017-08-04T22:18:50.623Z,68.63
2017-08-04T22:21:18.327Z,69.24
2017-08-04T22:23:45.933Z,69.25
2017-08-04T22:26:13.561Z,69.23
2017-08-04T22:28:41.165Z,68.93
2017-08-04T22:31:08.787Z,68.88
2017-08-04T22:33:36.397Z,69.13
2017-08-04T22:36:04.297Z,69.53
2017-08-04T22:38:31.888Z,69.48
2017-08-04T22:40:59.949Z,69.79
2017-08-04T22:43:27.605Z,70.48
2017-08-04T22:45:55.234Z,71.54
2017-08-04T22:48:22.990Z,72.11
2017-08-04T22:50:50.618Z,72.24
2017-08-04T22:53:18.237Z,71.92
2017-08-04T22:55:46.244Z,72.28
2017-08-04T22:58:13.874Z,71.79
2017-08-04T23:00:41.512Z,70.94
2017-08-04T23:03:09.129Z,71.49
2017-08-04T23:05:36.727Z,71.68
2017-08-04T23:08:04.393Z,72.03
2017-08-04T23:10:32.001Z,71.83
2017-08-04T23:12:59.662Z,71.57
2017-08-04T23:15:27.264Z,71.57
2017-08-04T23:17:54.928Z,72.21
2017-08-04T23:20:22.534Z,72.14
2017-08-04T23:22:50.274Z,72.67
2017-08-04T23:25:17.890Z,73.08
2017-08-04T23:27:45.524Z,73.03
2017-08-04T23:30:13.257Z,72.95
2017-08-04T23:32:40.904Z,72.39
2017-08-04T23:35:08.514Z,72.33
2017-08-04T23:37:36.222Z,71.88
2017-08-04T23:40:03.896Z,71.95
2017-08-04T23:42:31.607Z,70.85
2017-08-04T23:44:59.214Z,69.55
2017-08-04T23:47:26.959Z,67.45
2017-08-04T23:49:54.576Z,66.50
2017-08-04T23:52:22.219Z,67.33
2017-08-04T23:54:49.841Z,68.03
2017-08-04T23:57:17.606Z,68.74
2017-08-04T23:59:45.210Z,69.22
